METAR Data

Data at: 1126 UTC 21 Apr 2021

METAR for:CYQI (Yarmouth Arpt, NS, CN)
Text:CYQI 211100Z 15008KT 7SM FEW020 BKN250 06/06 A2992 RMK SC1CI5 SC TR SLP136
Temperature: 6.0°C ( 43°F)
Dewpoint: 6.0°C ( 43°F) [RH = 100%]
Pressure (altimeter):29.92 inches Hg (1013.3 mb) [Sea level pressure: 1013.6 mb]
Winds:from the SSE (150 degrees) at 9 MPH (8 knots; 4.1 m/s)
Visibility: 7 sm ( 11 km)
Ceiling:25000 feet AGL
Clouds: few clouds at 2000 feet AGL, broken clouds at 25000 feet AGL